Time;durP1;ratioP1;P1;durP2;ratioP2;P2;SDS_P1;SDS_P2;PMS_P1;PMS_P2;Temp;Humidity;BMP_temperature;BMP_pressure;BME280_temperature;BME280_humidity;BME280_pressure;Samples;Min_cycle;Max_cycle;Signal;HPM_P1;HPM_P2
2021/05/24 00:00:16;;;;;;;3.50;2.27;;;10.30;99.90;;;;;;6309364;22;20473;-48
2021/05/24 00:02:42;;;;;;;3.17;2.53;;;10.40;99.90;;;;;;6306138;22;20480;-51
2021/05/24 00:05:11;;;;;;;2.67;2.40;;;10.40;99.90;;;;;;6306549;22;20893;-54
2021/05/24 00:07:38;;;;;;;3.40;2.47;;;10.30;99.90;;;;;;6309361;22;20519;-52
2021/05/24 00:10:11;;;;;;;3.90;2.40;;;10.30;99.90;;;;;;6308867;22;20424;-54
2021/05/24 00:12:46;;;;;;;2.40;2.20;;;10.20;99.90;;;;;;6309482;22;20431;-49
2021/05/24 00:15:17;;;;;;;3.97;3.50;;;10.10;99.90;;;;;;6308318;22;20423;-50
2021/05/24 00:17:44;;;;;;;3.63;2.30;;;10.20;99.90;;;;;;6309735;22;20708;-53
2021/05/24 00:20:11;;;;;;;7.40;2.30;;;10.20;99.90;;;;;;6307742;22;20417;-46
2021/05/24 00:22:38;;;;;;;2.83;2.50;;;10.20;99.90;;;;;;6308790;22;20391;-49
2021/05/24 00:25:08;;;;;;;2.10;1.80;;;10.20;99.90;;;;;;6308997;22;20420;-50
2021/05/24 00:27:35;;;;;;;3.00;2.40;;;10.10;99.90;;;;;;6308918;22;20423;-50
2021/05/24 00:30:01;;;;;;;2.83;2.20;;;10.10;99.90;;;;;;6307885;22;20416;-47
2021/05/24 00:32:28;;;;;;;4.63;2.40;;;10.10;99.90;;;;;;6309223;22;20423;-55
2021/05/24 00:34:54;;;;;;;2.57;2.03;;;10.20;99.90;;;;;;6310567;22;20823;-55
2021/05/24 00:37:21;;;;;;;3.80;2.27;;;10.10;99.90;;;;;;6310970;22;20429;-52
2021/05/24 00:39:47;;;;;;;6.10;2.70;;;10.10;99.90;;;;;;6310215;22;20424;-53
2021/05/24 00:42:15;;;;;;;3.00;2.17;;;10.20;99.90;;;;;;6311333;22;20868;-47
2021/05/24 00:44:42;;;;;;;2.37;2.13;;;10.20;99.90;;;;;;6310491;22;20849;-46
2021/05/24 00:47:14;;;;;;;2.30;2.10;;;10.20;99.90;;;;;;6312135;22;20419;-46
2021/05/24 00:49:44;;;;;;;3.80;2.40;;;10.20;99.90;;;;;;6310670;22;20419;-47
2021/05/24 00:52:11;;;;;;;3.73;2.30;;;10.20;99.90;;;;;;6311044;22;20444;-47
2021/05/24 00:54:37;;;;;;;2.60;2.17;;;10.20;99.90;;;;;;6311126;22;20880;-47
2021/05/24 00:57:08;;;;;;;4.20;2.50;;;10.30;99.90;;;;;;6309654;22;20759;-54
2021/05/24 00:59:36;;;;;;;2.47;1.90;;;10.30;99.90;;;;;;6310233;22;20423;-56
2021/05/24 01:02:03;;;;;;;5.37;2.33;;;10.30;99.90;;;;;;6310848;22;20732;-56
2021/05/24 01:04:30;;;;;;;2.60;2.40;;;10.30;99.90;;;;;;6308256;22;20420;-47
2021/05/24 01:06:57;;;;;;;4.43;2.23;;;10.30;99.90;;;;;;6307782;22;20886;-47
2021/05/24 01:09:24;;;;;;;3.67;2.70;;;10.30;99.90;;;;;;6310206;22;20416;-51
2021/05/24 01:11:52;;;;;;;3.23;1.97;;;10.30;99.90;;;;;;6311840;22;20429;-49
2021/05/24 01:14:19;;;;;;;2.33;2.07;;;10.30;99.90;;;;;;6309848;22;20435;-48
2021/05/24 01:16:50;;;;;;;2.90;2.70;;;10.30;99.90;;;;;;6310419;22;20444;-47
2021/05/24 01:19:17;;;;;;;2.73;2.30;;;10.40;99.90;;;;;;6309536;22;20849;-47
2021/05/24 01:21:45;;;;;;;2.20;2.00;;;10.50;99.90;;;;;;6311362;22;20473;-56
2021/05/24 01:24:11;;;;;;;2.30;2.10;;;10.50;99.90;;;;;;6310987;22;20428;-52
2021/05/24 01:26:39;;;;;;;3.33;2.67;;;10.50;99.90;;;;;;6310411;22;20421;-55
2021/05/24 01:29:06;;;;;;;3.50;2.37;;;10.60;99.90;;;;;;6310623;22;20852;-53
2021/05/24 01:31:37;;;;;;;4.20;2.30;;;10.70;99.90;;;;;;6309437;22;20451;-52
2021/05/24 01:34:04;;;;;;;3.70;2.03;;;10.70;99.90;;;;;;6309798;22;20849;-53
2021/05/24 01:36:31;;;;;;;3.00;2.00;;;10.70;99.90;;;;;;6310554;22;20422;-53
2021/05/24 01:38:59;;;;;;;3.93;2.17;;;10.70;99.90;;;;;;6310250;22;20416;-50
2021/05/24 01:41:25;;;;;;;2.60;2.40;;;10.70;99.90;;;;;;6310609;22;20898;-49
2021/05/24 01:43:52;;;;;;;3.23;2.30;;;10.70;99.90;;;;;;6310005;22;20423;-54
2021/05/24 01:46:19;;;;;;;2.63;2.27;;;10.70;99.90;;;;;;6309451;22;20416;-52
2021/05/24 01:48:46;;;;;;;1.93;1.73;;;10.80;99.90;;;;;;6309394;22;20416;-51
2021/05/24 01:51:15;;;;;;;3.57;2.60;;;10.70;99.90;;;;;;6310385;22;20452;-49
2021/05/24 01:53:42;;;;;;;2.83;2.20;;;10.80;99.90;;;;;;6310265;22;20546;-48
2021/05/24 01:56:09;;;;;;;2.80;2.23;;;10.80;99.90;;;;;;6309874;22;20420;-49
2021/05/24 01:58:36;;;;;;;2.90;2.00;;;10.80;99.90;;;;;;6309694;22;20420;-54
2021/05/24 02:01:07;;;;;;;3.30;2.20;;;10.80;99.90;;;;;;6308494;22;20729;-50
2021/05/24 02:03:34;;;;;;;5.03;1.93;;;10.80;99.90;;;;;;6307367;22;20420;-48
2021/05/24 02:06:06;;;;;;;6.40;1.90;;;10.80;99.90;;;;;;6307469;22;20478;-53
2021/05/24 02:08:35;;;;;;;3.60;1.93;;;10.80;99.90;;;;;;6310104;22;20390;-52
2021/05/24 02:11:04;;;;;;;3.03;2.10;;;10.80;99.90;;;;;;6308346;22;20440;-47
2021/05/24 02:13:32;;;;;;;3.93;2.07;;;10.80;99.90;;;;;;6309800;22;20487;-48
2021/05/24 02:15:59;;;;;;;6.10;2.27;;;10.80;99.90;;;;;;6309597;22;20440;-55
2021/05/24 02:18:25;;;;;;;2.93;1.97;;;10.80;99.90;;;;;;6308970;22;20420;-51
2021/05/24 02:20:52;;;;;;;5.17;3.73;;;10.70;99.90;;;;;;6309441;22;20713;-54
2021/05/24 02:23:19;;;;;;;4.10;2.60;;;10.70;99.90;;;;;;6310290;22;20845;-49
2021/05/24 02:25:47;;;;;;;3.00;2.10;;;10.70;99.90;;;;;;6309304;22;20428;-53
2021/05/24 02:28:14;;;;;;;3.10;1.80;;;10.70;99.90;;;;;;6309829;22;20464;-51
2021/05/24 02:30:42;;;;;;;1.93;1.67;;;10.70;99.90;;;;;;6308493;22;20448;-49
2021/05/24 02:33:11;;;;;;;2.63;2.00;;;10.70;99.90;;;;;;6309858;22;20402;-48
2021/05/24 02:35:38;;;;;;;3.03;2.30;;;10.70;99.90;;;;;;6308816;22;20727;-53
2021/05/24 02:38:05;;;;;;;2.90;2.60;;;10.60;99.90;;;;;;6309855;22;20427;-53
2021/05/24 02:40:33;;;;;;;2.23;1.83;;;10.60;99.90;;;;;;6309810;22;20412;-51
2021/05/24 02:43:01;;;;;;;3.60;2.50;;;10.50;99.90;;;;;;6309583;22;20849;-47
2021/05/24 02:45:28;;;;;;;2.10;1.90;;;10.50;99.90;;;;;;6310032;22;20439;-45
2021/05/24 02:47:56;;;;;;;2.23;2.03;;;10.50;99.90;;;;;;6309487;22;20398;-46
2021/05/24 02:50:25;;;;;;;2.93;2.10;;;10.50;99.90;;;;;;6309647;22;20438;-47
2021/05/24 02:52:55;;;;;;;3.03;2.20;;;10.40;99.90;;;;;;6309144;22;20424;-54
2021/05/24 02:55:22;;;;;;;3.30;2.00;;;10.40;99.90;;;;;;6309821;22;20402;-46
2021/05/24 02:57:48;;;;;;;2.00;1.90;;;10.40;99.90;;;;;;6309652;22;20423;-49
2021/05/24 03:00:17;;;;;;;4.00;2.10;;;10.40;99.90;;;;;;6309287;22;20419;-47
2021/05/24 03:02:48;;;;;;;3.53;2.60;;;10.30;99.90;;;;;;6306635;22;20427;-50
2021/05/24 03:05:17;;;;;;;3.47;2.27;;;10.40;99.90;;;;;;6307806;22;20421;-46
2021/05/24 03:07:44;;;;;;;3.37;2.03;;;10.30;99.90;;;;;;6309690;22;20417;-54
2021/05/24 03:10:12;;;;;;;5.20;3.00;;;10.30;99.90;;;;;;6309439;22;20466;-54
2021/05/24 03:12:39;;;;;;;2.03;1.83;;;10.30;99.90;;;;;;6309655;22;20426;-52
2021/05/24 03:15:06;;;;;;;2.50;2.30;;;10.30;99.90;;;;;;6309273;22;20427;-54
2021/05/24 03:17:33;;;;;;;2.40;2.20;;;10.30;99.90;;;;;;6308863;22;20727;-49
2021/05/24 03:20:00;;;;;;;5.17;2.20;;;10.30;99.90;;;;;;6309908;22;20415;-50
2021/05/24 03:22:27;;;;;;;2.30;2.10;;;10.30;99.90;;;;;;6308807;22;20419;-47
2021/05/24 03:24:56;;;;;;;3.80;2.43;;;10.20;99.90;;;;;;6309230;22;20420;-45
2021/05/24 03:27:23;;;;;;;1.97;1.83;;;10.30;99.90;;;;;;6309023;22;20398;-52
2021/05/24 03:29:49;;;;;;;2.10;1.70;;;10.30;99.90;;;;;;6309329;22;20397;-49
2021/05/24 03:32:16;;;;;;;2.13;1.87;;;10.30;99.90;;;;;;6309219;22;20884;-47
2021/05/24 03:34:45;;;;;;;2.13;1.90;;;10.30;99.90;;;;;;6308851;22;20726;-46
2021/05/24 03:37:12;;;;;;;2.93;2.20;;;10.30;99.90;;;;;;6309928;22;20448;-46
2021/05/24 03:39:39;;;;;;;3.47;2.53;;;10.40;99.90;;;;;;6308763;22;20701;-47
2021/05/24 03:42:09;;;;;;;2.33;1.70;;;10.40;99.90;;;;;;6309362;22;20412;-47
2021/05/24 03:44:37;;;;;;;2.17;1.93;;;10.40;99.90;;;;;;6309161;22;20413;-48
2021/05/24 03:47:04;;;;;;;2.73;2.00;;;10.50;99.90;;;;;;6308614;22;20420;-51
2021/05/24 03:49:30;;;;;;;5.47;2.57;;;10.50;99.90;;;;;;6309654;22;20523;-47
2021/05/24 03:51:57;;;;;;;3.40;1.83;;;10.50;99.90;;;;;;6308955;22;20444;-47
2021/05/24 03:54:23;;;;;;;2.00;1.63;;;10.60;99.90;;;;;;6309461;22;20390;-55
2021/05/24 03:56:51;;;;;;;2.13;1.93;;;10.60;99.90;;;;;;6308638;22;20416;-55
2021/05/24 03:59:18;;;;;;;2.90;1.80;;;10.70;99.90;;;;;;6309903;22;20398;-51
2021/05/24 04:01:45;;;;;;;5.20;2.57;;;10.70;99.90;;;;;;6308809;22;20433;-53
2021/05/24 04:04:14;;;;;;;2.30;2.10;;;10.80;99.90;;;;;;6304470;22;20889;-52
2021/05/24 04:06:46;;;;;;;6.60;2.20;;;10.80;99.90;;;;;;6310301;22;20399;-54
2021/05/24 04:09:13;;;;;;;2.33;2.13;;;10.90;99.90;;;;;;6310516;22;20427;-53
2021/05/24 04:11:39;;;;;;;2.43;1.90;;;11.00;99.90;;;;;;6311954;22;20490;-52
2021/05/24 04:14:07;;;;;;;1.70;1.60;;;11.10;99.90;;;;;;6310569;22;20481;-52
2021/05/24 04:16:34;;;;;;;2.80;2.00;;;11.10;99.90;;;;;;6310246;22;20440;-51
2021/05/24 04:19:06;;;;;;;2.20;1.87;;;11.20;99.90;;;;;;6310459;22;20420;-51
2021/05/24 04:21:32;;;;;;;2.13;2.03;;;11.30;99.90;;;;;;6310561;22;20424;-56
2021/05/24 04:23:59;;;;;;;2.37;2.13;;;11.40;99.90;;;;;;6310771;22;20470;-50
2021/05/24 04:26:25;;;;;;;5.13;2.47;;;11.40;99.90;;;;;;6310738;22;20405;-48
2021/05/24 04:28:52;;;;;;;2.73;2.10;;;11.50;99.90;;;;;;6310842;22;20798;-48
2021/05/24 04:31:19;;;;;;;1.60;1.40;;;11.60;99.90;;;;;;6310258;22;20443;-46
2021/05/24 04:33:48;;;;;;;2.80;1.97;;;11.60;99.90;;;;;;6310210;22;20420;-47
2021/05/24 04:36:14;;;;;;;3.30;2.30;;;11.70;99.90;;;;;;6311368;22;20416;-47
2021/05/24 04:38:41;;;;;;;3.17;2.20;;;11.80;99.90;;;;;;6310325;22;20716;-50
2021/05/24 04:41:07;;;;;;;2.10;1.70;;;11.90;99.90;;;;;;6310776;22;20423;-49
2021/05/24 04:43:38;;;;;;;2.60;2.40;;;12.00;99.90;;;;;;6310990;22;20416;-47
2021/05/24 04:46:04;;;;;;;2.27;1.90;;;12.20;99.90;;;;;;6310993;22;20846;-52
2021/05/24 04:48:33;;;;;;;2.90;1.83;;;12.30;99.90;;;;;;6310841;22;20416;-49
2021/05/24 04:50:59;;;;;;;2.50;2.10;;;12.30;99.90;;;;;;6310650;22;20436;-47
2021/05/24 04:53:26;;;;;;;2.30;2.00;;;12.40;99.90;;;;;;6310852;22;20416;-49
2021/05/24 04:55:52;;;;;;;5.00;2.10;;;12.40;99.90;;;;;;6310907;22;20420;-51
2021/05/24 04:58:22;;;;;;;4.00;1.90;;;12.40;99.90;;;;;;6311279;22;20727;-54
2021/05/24 05:00:49;;;;;;;2.03;1.87;;;12.40;99.90;;;;;;6310654;22;20416;-50
2021/05/24 05:03:16;;;;;;;3.63;2.40;;;12.50;99.90;;;;;;6307039;22;20713;-52
2021/05/24 05:05:45;;;;;;;3.90;1.90;;;12.60;99.90;;;;;;6309647;22;20428;-56
2021/05/24 05:08:12;;;;;;;2.67;2.20;;;12.80;99.90;;;;;;6310137;22;20416;-57
2021/05/24 05:10:38;;;;;;;2.90;2.20;;;12.80;99.90;;;;;;6310734;22;20910;-55
2021/05/24 05:13:10;;;;;;;1.90;1.80;;;12.90;99.90;;;;;;6308718;22;20716;-52
2021/05/24 05:15:37;;;;;;;1.93;1.40;;;13.00;99.90;;;;;;6310671;22;20420;-53
2021/05/24 05:18:05;;;;;;;2.97;1.90;;;13.00;99.90;;;;;;6310234;22;20395;-50
2021/05/24 05:20:32;;;;;;;2.30;2.10;;;13.00;99.90;;;;;;6309755;22;20698;-50
2021/05/24 05:22:59;;;;;;;3.10;2.03;;;13.10;99.90;;;;;;6310664;22;20737;-50
2021/05/24 05:25:26;;;;;;;3.30;1.93;;;13.30;99.90;;;;;;6310165;22;20420;-51
2021/05/24 05:27:52;;;;;;;2.20;2.00;;;13.40;99.90;;;;;;6310850;22;20426;-50
2021/05/24 05:30:20;;;;;;;3.67;2.20;;;13.50;99.90;;;;;;6309626;22;20399;-50
2021/05/24 05:32:47;;;;;;;2.97;1.97;;;13.40;99.90;;;;;;6309687;22;20448;-52
2021/05/24 05:35:16;;;;;;;3.53;2.40;;;13.60;99.90;;;;;;6310373;22;20420;-48
2021/05/24 05:37:43;;;;;;;3.47;2.07;;;13.70;99.90;;;;;;6310258;22;20441;-54
2021/05/24 05:40:16;;;;;;;2.20;1.50;;;13.70;98.90;;;;;;6310024;22;20447;-55
2021/05/24 05:42:43;;;;;;;2.57;2.37;;;13.80;97.70;;;;;;6309463;22;20425;-56
2021/05/24 05:45:11;;;;;;;3.30;1.90;;;13.80;98.00;;;;;;6310393;22;20416;-52
2021/05/24 05:47:39;;;;;;;2.23;2.03;;;13.90;97.70;;;;;;6310285;22;20416;-53
2021/05/24 05:50:08;;;;;;;2.60;1.93;;;14.00;96.60;;;;;;6310224;22;20420;-50
2021/05/24 05:52:35;;;;;;;2.00;1.90;;;14.20;96.50;;;;;;6310782;22;20454;-56
2021/05/24 05:55:01;;;;;;;3.27;2.40;;;14.30;95.30;;;;;;6309699;22;20527;-53
2021/05/24 05:57:29;;;;;;;2.70;1.97;;;14.40;94.50;;;;;;6310945;22;20477;-55
2021/05/24 05:59:55;;;;;;;1.90;1.60;;;14.50;93.80;;;;;;6308918;22;20418;-57
2021/05/24 06:02:22;;;;;;;2.80;2.20;;;14.40;93.20;;;;;;6307816;22;20447;-54
2021/05/24 06:04:49;;;;;;;2.80;2.00;;;14.40;93.10;;;;;;6306027;22;20416;-56
2021/05/24 06:07:16;;;;;;;3.10;1.53;;;14.60;93.90;;;;;;6309586;22;20422;-53
2021/05/24 06:09:43;;;;;;;3.47;1.63;;;14.50;93.20;;;;;;6309653;22;20420;-51
2021/05/24 06:12:09;;;;;;;3.87;2.60;;;14.40;93.30;;;;;;6308845;22;20440;-48
2021/05/24 06:14:37;;;;;;;2.10;1.90;;;14.60;92.70;;;;;;6309647;22;20420;-48
2021/05/24 06:17:06;;;;;;;2.13;1.93;;;14.70;91.90;;;;;;6309235;22;20451;-50
2021/05/24 06:19:32;;;;;;;2.20;2.10;;;14.90;91.90;;;;;;6309600;22;20394;-51
2021/05/24 06:21:59;;;;;;;1.83;1.70;;;15.10;91.50;;;;;;6309299;22;20703;-52
2021/05/24 06:24:26;;;;;;;1.83;1.60;;;15.40;90.70;;;;;;6308890;22;20768;-52
2021/05/24 06:26:53;;;;;;;2.87;2.17;;;15.50;90.50;;;;;;6309257;22;20398;-48
2021/05/24 06:29:23;;;;;;;2.83;1.93;;;15.60;89.90;;;;;;6307820;22;20419;-50
2021/05/24 06:31:51;;;;;;;2.40;2.17;;;15.70;87.30;;;;;;6308900;22;20467;-54
2021/05/24 06:34:18;;;;;;;2.80;1.87;;;15.60;86.80;;;;;;6310253;22;20429;-50
2021/05/24 06:36:44;;;;;;;2.30;2.10;;;15.60;86.00;;;;;;6309657;22;20723;-49
2021/05/24 06:39:11;;;;;;;2.00;1.90;;;16.00;87.40;;;;;;6309452;22;20464;-47
2021/05/24 06:41:38;;;;;;;5.40;2.60;;;16.20;84.30;;;;;;6308791;22;20416;-52
2021/05/24 06:44:05;;;;;;;6.70;2.33;;;16.40;82.20;;;;;;6310219;22;20449;-55
2021/05/24 06:46:32;;;;;;;2.13;1.87;;;16.40;80.60;;;;;;6307488;22;20427;-51
2021/05/24 06:49:00;;;;;;;2.63;2.07;;;16.50;79.80;;;;;;6309064;22;20423;-49
2021/05/24 06:51:26;;;;;;;2.80;2.40;;;16.60;79.10;;;;;;6308278;22;20525;-51
2021/05/24 06:53:53;;;;;;;3.27;1.83;;;16.70;77.70;;;;;;6307973;22;20426;-54
2021/05/24 06:56:19;;;;;;;2.80;2.60;;;16.70;77.60;;;;;;6308974;22;20398;-54
2021/05/24 06:58:46;;;;;;;1.83;1.73;;;17.00;77.50;;;;;;6307721;22;20519;-53
2021/05/24 07:01:13;;;;;;;1.87;1.70;;;17.10;75.80;;;;;;6309569;22;20402;-51
2021/05/24 07:03:42;;;;;;;2.20;1.93;;;17.30;75.70;;;;;;6303502;22;20416;-49
2021/05/24 07:06:10;;;;;;;3.47;2.20;;;17.60;75.70;;;;;;6308851;22;20690;-50
2021/05/24 07:08:39;;;;;;;1.90;1.80;;;17.50;72.40;;;;;;6308945;22;20424;-50
2021/05/24 07:11:08;;;;;;;2.20;2.00;;;17.60;73.60;;;;;;6307943;22;20845;-51
2021/05/24 07:13:35;;;;;;;2.10;1.90;;;17.60;71.10;;;;;;6309663;22;20416;-50
2021/05/24 07:16:05;;;;;;;2.53;2.20;;;17.30;71.10;;;;;;6309430;22;20448;-48
2021/05/24 07:18:32;;;;;;;2.90;2.00;;;17.40;72.00;;;;;;6309368;22;20456;-52
2021/05/24 07:20:58;;;;;;;2.60;2.40;;;17.80;71.20;;;;;;6306458;22;20423;-53
2021/05/24 07:23:27;;;;;;;3.70;2.10;;;17.80;70.60;;;;;;6309996;22;20398;-49
2021/05/24 07:25:54;;;;;;;2.00;1.80;;;17.80;69.40;;;;;;6309526;22;20474;-47
2021/05/24 07:28:20;;;;;;;4.50;2.40;;;18.00;69.70;;;;;;6308668;22;20460;-50
2021/05/24 07:30:47;;;;;;;3.20;2.10;;;18.20;69.50;;;;;;6309508;22;20423;-53
2021/05/24 07:33:14;;;;;;;2.43;1.87;;;18.20;68.60;;;;;;6309731;22;20448;-56
2021/05/24 07:35:40;;;;;;;6.63;2.57;;;17.90;68.10;;;;;;6311108;22;20853;-49
2021/05/24 07:38:08;;;;;;;2.20;2.00;;;18.20;68.90;;;;;;6309693;22;20393;-48
2021/05/24 07:40:36;;;;;;;3.80;1.83;;;17.90;68.30;;;;;;6310141;22;20482;-53
2021/05/24 07:43:02;;;;;;;3.50;2.50;;;18.10;70.00;;;;;;6312086;22;20727;-53
2021/05/24 07:45:29;;;;;;;2.23;2.00;;;18.40;68.40;;;;;;6310918;22;20398;-53
2021/05/24 07:47:55;;;;;;;1.73;1.63;;;18.60;66.80;;;;;;6311654;22;20887;-54
2021/05/24 07:50:25;;;;;;;4.23;2.17;;;18.40;65.40;;;;;;6310440;22;20390;-50
2021/05/24 07:52:52;;;;;;;3.13;2.43;;;18.50;66.70;;;;;;6311057;22;20448;-55
2021/05/24 07:55:19;;;;;;;2.50;1.93;;;18.60;66.70;;;;;;6311710;22;20779;-56
2021/05/24 07:57:46;;;;;;;3.43;2.17;;;18.60;66.40;;;;;;6310368;22;20423;-54
2021/05/24 08:00:16;;;;;;;2.90;2.33;;;18.50;66.20;;;;;;6310207;22;20478;-53
2021/05/24 08:02:44;;;;;;;3.00;2.10;;;18.70;66.90;;;;;;6307619;22;20890;-56
2021/05/24 08:05:15;;;;;;;2.03;1.90;;;19.10;66.40;;;;;;6309649;22;20743;-55
2021/05/24 08:07:42;;;;;;;4.63;2.50;;;19.00;65.50;;;;;;6310912;22;20473;-47
2021/05/24 08:10:15;;;;;;;2.13;1.93;;;19.30;65.10;;;;;;6310877;22;20486;-49
2021/05/24 08:12:42;;;;;;;3.60;2.20;;;19.00;63.40;;;;;;6310782;22;20542;-51
2021/05/24 08:15:12;;;;;;;5.93;2.13;;;18.30;64.90;;;;;;6310256;22;20514;-49
2021/05/24 08:17:39;;;;;;;3.10;2.20;;;18.40;67.20;;;;;;6310206;22;20958;-51
2021/05/24 08:20:07;;;;;;;4.30;2.50;;;18.40;66.10;;;;;;6309913;22;20390;-51
2021/05/24 08:22:35;;;;;;;2.83;2.10;;;18.60;65.10;;;;;;6310190;22;20784;-49
2021/05/24 08:25:03;;;;;;;3.63;2.00;;;18.70;64.60;;;;;;6310949;22;20420;-53
2021/05/24 08:27:29;;;;;;;3.70;1.77;;;18.60;64.40;;;;;;6309671;22;20423;-51
2021/05/24 08:29:56;;;;;;;1.90;1.80;;;19.10;64.20;;;;;;6309922;22;20473;-46
2021/05/24 08:32:23;;;;;;;3.07;2.10;;;19.60;64.40;;;;;;6309443;22;20456;-48
2021/05/24 08:34:52;;;;;;;2.40;2.20;;;19.70;61.90;;;;;;6311478;22;20849;-53
2021/05/24 08:37:21;;;;;;;2.47;2.27;;;19.80;60.90;;;;;;6310390;22;20855;-51
2021/05/24 08:39:48;;;;;;;2.90;2.23;;;20.00;62.50;;;;;;6310134;22;20477;-55
2021/05/24 08:42:15;;;;;;;2.00;1.80;;;20.20;61.10;;;;;;6311236;22;20515;-49
2021/05/24 08:44:43;;;;;;;4.60;2.10;;;19.50;61.20;;;;;;6311874;22;20420;-51
2021/05/24 08:47:10;;;;;;;2.60;2.40;;;19.10;62.10;;;;;;6310862;22;20420;-53
2021/05/24 08:49:42;;;;;;;3.60;2.50;;;19.10;63.50;;;;;;6310164;22;20420;-56
2021/05/24 08:52:09;;;;;;;2.40;2.20;;;19.00;61.40;;;;;;6308263;22;20500;-51
2021/05/24 08:54:37;;;;;;;3.27;2.80;;;18.50;61.90;;;;;;6310634;22;20420;-49
2021/05/24 08:57:05;;;;;;;2.60;2.40;;;17.90;63.20;;;;;;6310789;22;20420;-50
2021/05/24 08:59:31;;;;;;;3.30;2.10;;;17.40;64.40;;;;;;6310004;22;20480;-53
2021/05/24 09:01:58;;;;;;;4.30;2.00;;;17.10;65.80;;;;;;6309902;22;20423;-45
2021/05/24 09:04:44;;;;;;;2.43;2.23;;;17.00;67.60;;;;;;6305882;22;20416;-45
2021/05/24 09:07:12;;;;;;;3.30;2.03;;;16.90;68.30;;;;;;6311334;22;20505;-46
2021/05/24 09:09:38;;;;;;;3.33;1.80;;;16.60;68.10;;;;;;6311440;22;20470;-45
2021/05/24 09:12:18;;;;;;;2.30;2.10;;;16.50;69.80;;;;;;6310436;22;20454;-47
2021/05/24 09:14:55;;;;;;;3.20;2.17;;;16.40;68.90;;;;;;6311294;22;20426;-46
2021/05/24 09:17:21;;;;;;;6.53;2.83;;;16.40;69.40;;;;;;6310700;22;20431;-45
2021/05/24 09:19:49;;;;;;;1.90;1.80;;;16.50;70.00;;;;;;6309645;22;20698;-48
2021/05/24 09:22:15;;;;;;;3.63;2.60;;;16.80;69.90;;;;;;6310710;22;20466;-46
2021/05/24 09:24:43;;;;;;;3.60;2.30;;;16.80;69.30;;;;;;6311182;22;20424;-45
2021/05/24 09:27:28;;;;;;;7.50;2.73;;;16.60;68.70;;;;;;6311280;22;20423;-45
2021/05/24 09:30:01;;;;;;;2.40;2.20;;;16.40;69.90;;;;;;6310261;22;20416;-45
2021/05/24 09:32:31;;;;;;;4.60;1.90;;;16.40;70.60;;;;;;6309248;22;20470;-45
2021/05/24 09:35:02;;;;;;;6.97;2.30;;;16.50;70.70;;;;;;6310657;22;20718;-45
2021/05/24 09:37:31;;;;;;;2.63;1.93;;;16.50;70.80;;;;;;6310712;22;20423;-48
2021/05/24 09:39:58;;;;;;;3.07;2.60;;;16.60;71.10;;;;;;6311180;22;20865;-45
2021/05/24 09:42:25;;;;;;;2.50;2.30;;;16.60;71.90;;;;;;6310499;22;20423;-46
2021/05/24 09:44:54;;;;;;;4.73;2.60;;;16.70;72.10;;;;;;6310580;22;20431;-46
2021/05/24 09:47:38;;;;;;;3.17;2.97;;;16.70;71.20;;;;;;6311328;22;20426;-46
2021/05/24 09:50:14;;;;;;;4.33;3.93;;;16.80;71.40;;;;;;6311909;22;20456;-46
2021/05/24 09:52:42;;;;;;;4.10;2.77;;;16.80;71.30;;;;;;6311553;22;20444;-49
2021/05/24 09:55:17;;;;;;;4.37;2.40;;;16.70;70.50;;;;;;6309640;22;20705;-46
2021/05/24 09:57:54;;;;;;;3.87;2.20;;;16.70;70.40;;;;;;6307560;22;20415;-47
2021/05/24 10:00:24;;;;;;;2.90;2.70;;;16.70;70.20;;;;;;6309684;22;20796;-47
2021/05/24 10:02:52;;;;;;;2.57;2.20;;;16.90;71.10;;;;;;6307303;22;20420;-53
2021/05/24 10:05:19;;;;;;;3.53;2.40;;;17.30;71.00;;;;;;6308762;22;20412;-46
2021/05/24 10:07:46;;;;;;;5.03;3.10;;;17.80;70.40;;;;;;6309073;22;20416;-53
2021/05/24 10:10:15;;;;;;;2.67;2.07;;;18.20;66.80;;;;;;6309717;22;20456;-48
2021/05/24 10:12:41;;;;;;;2.10;1.97;;;18.60;67.60;;;;;;6310346;22;20734;-52
2021/05/24 10:15:09;;;;;;;2.87;2.33;;;18.80;66.40;;;;;;6309819;22;20415;-49
2021/05/24 10:17:42;;;;;;;2.60;2.33;;;19.30;65.20;;;;;;6308878;22;20443;-51
2021/05/24 10:20:12;;;;;;;3.03;2.43;;;19.80;63.90;;;;;;6309236;22;20434;-56
2021/05/24 10:22:42;;;;;;;2.53;2.17;;;19.50;62.00;;;;;;6309724;22;20420;-53
2021/05/24 10:25:09;;;;;;;2.77;2.40;;;19.00;62.00;;;;;;6309384;22;20727;-47
2021/05/24 12:13:04;;;;;;;3.60;2.73;;;14.30;99.90;;;;;;6294087;22;20458;31
2021/05/24 13:30:28;;;;;;;1.90;1.80;;;14.10;99.90;;;;;;6297616;22;20491;-63
2021/05/24 13:32:59;;;;;;;2.23;2.03;;;14.10;99.90;;;;;;6309993;22;20466;-63
2021/05/24 16:01:28;;;;;;;5.53;4.73;;;13.20;99.90;;;;;;6249236;23;20402;-61
2021/05/24 16:03:56;;;;;;;4.30;3.90;;;13.00;99.90;;;;;;6245791;23;20418;-62
2021/05/24 16:06:23;;;;;;;3.03;2.53;;;12.90;99.90;;;;;;6249251;23;20718;-62
2021/05/24 16:08:51;;;;;;;2.67;2.47;;;12.90;99.90;;;;;;6249511;23;20685;-62
2021/05/24 16:11:18;;;;;;;2.50;2.30;;;12.90;99.90;;;;;;6249411;23;20437;-62
2021/05/24 16:13:44;;;;;;;3.07;2.60;;;12.80;99.90;;;;;;6247614;23;20406;-62
2021/05/24 16:16:11;;;;;;;2.60;2.00;;;12.90;99.90;;;;;;6249595;23;20429;-61
2021/05/24 16:18:38;;;;;;;2.30;2.10;;;13.00;99.90;;;;;;6249260;23;20417;-61
2021/05/24 16:21:08;;;;;;;3.50;3.20;;;13.10;99.90;;;;;;6249495;23;20425;-62
2021/05/24 16:23:44;;;;;;;2.40;2.20;;;13.00;99.90;;;;;;6248555;23;20423;-62
2021/05/24 16:26:15;;;;;;;3.43;2.93;;;12.90;99.90;;;;;;6249753;23;20428;-61
2021/05/24 16:28:45;;;;;;;4.83;3.67;;;12.90;99.90;;;;;;6249320;23;20476;-61
2021/05/24 16:31:15;;;;;;;7.57;5.43;;;13.10;99.90;;;;;;6249550;23;20483;-61
2021/05/24 16:33:43;;;;;;;4.50;3.17;;;13.00;99.90;;;;;;6248943;23;20449;-61
2021/05/24 16:36:09;;;;;;;5.73;5.13;;;13.00;99.90;;;;;;6249289;23;20432;-61
2021/05/24 16:38:36;;;;;;;9.50;6.43;;;13.10;99.90;;;;;;6248640;23;20488;-61
2021/05/24 16:41:08;;;;;;;4.17;3.40;;;13.10;99.90;;;;;;6249410;23;20418;-61
2021/05/24 16:43:36;;;;;;;3.00;2.70;;;13.20;99.90;;;;;;6249337;23;20496;-61
2021/05/24 16:46:02;;;;;;;4.50;3.00;;;13.10;99.90;;;;;;6249299;23;20418;-61
2021/05/24 16:48:30;;;;;;;4.90;3.80;;;13.10;99.90;;;;;;6248997;23;20734;-60
2021/05/24 16:50:58;;;;;;;3.33;2.70;;;13.10;99.90;;;;;;6249350;23;20517;-60
2021/05/24 16:53:28;;;;;;;2.97;2.73;;;13.20;99.90;;;;;;6248519;23;20921;-60
2021/05/24 16:55:55;;;;;;;2.83;2.33;;;13.30;99.90;;;;;;6249410;23;20461;-60
2021/05/24 16:58:21;;;;;;;3.97;2.20;;;13.10;99.90;;;;;;6248889;23;20481;-59
2021/05/24 17:00:50;;;;;;;3.10;2.50;;;13.00;99.90;;;;;;6270646;22;20445;-59
2021/05/24 17:03:19;;;;;;;2.80;2.60;;;13.10;99.90;;;;;;6274847;22;20417;-62
2021/05/24 17:05:45;;;;;;;2.87;2.63;;;13.10;99.90;;;;;;6277810;22;20417;-62
2021/05/24 17:45:50;;;;;;;1.90;1.80;;;13.60;99.90;;;;;;6304182;22;20605;-49
2021/05/24 17:48:17;;;;;;;2.27;2.07;;;13.60;99.90;;;;;;6310430;22;20412;-56
2021/05/24 17:50:56;;;;;;;5.10;4.60;;;13.60;99.90;;;;;;6310323;22;20420;-55
2021/05/24 17:53:23;;;;;;;6.63;6.00;;;13.60;99.90;;;;;;6309440;22;20896;-51
2021/05/24 17:55:50;;;;;;;10.80;8.70;;;13.50;99.90;;;;;;6310367;22;20417;-58
2021/05/24 17:58:20;;;;;;;7.67;6.53;;;13.40;99.90;;;;;;6310172;22;20416;-55
2021/05/24 18:00:49;;;;;;;4.33;3.50;;;13.30;99.90;;;;;;6309214;22;20412;-55
2021/05/24 18:03:19;;;;;;;2.60;2.40;;;13.30;99.90;;;;;;6307050;22;20478;-56
2021/05/24 18:05:49;;;;;;;7.20;6.50;;;13.20;99.90;;;;;;6308407;22;20456;-56
2021/05/24 18:08:18;;;;;;;4.17;3.77;;;13.10;99.90;;;;;;6309512;22;20428;-58
2021/05/24 18:10:44;;;;;;;15.20;10.60;;;13.10;99.90;;;;;;6308860;22;20412;-51
2021/05/24 18:13:11;;;;;;;5.57;4.40;;;13.10;99.90;;;;;;6309838;22;20448;-57
2021/05/24 18:15:38;;;;;;;2.53;2.33;;;13.10;99.90;;;;;;6310660;22;20420;-57
2021/05/24 18:18:09;;;;;;;3.10;2.80;;;13.10;99.90;;;;;;6309471;22;20430;-57
2021/05/24 18:20:40;;;;;;;6.60;4.90;;;13.10;99.90;;;;;;6310332;22;20420;-58
2021/05/24 18:23:08;;;;;;;3.30;2.50;;;13.20;99.90;;;;;;6309822;22;20876;-55
2021/05/24 18:25:35;;;;;;;4.00;3.60;;;13.20;99.90;;;;;;6309161;22;20391;-58
2021/05/24 18:28:05;;;;;;;4.40;2.53;;;13.30;99.90;;;;;;6307719;22;20475;-58
2021/05/24 18:30:33;;;;;;;4.13;3.70;;;13.20;99.90;;;;;;6309563;22;20417;-57
2021/05/24 18:33:03;;;;;;;4.70;3.70;;;13.30;99.90;;;;;;6309200;22;20422;-60
2021/05/24 18:35:34;;;;;;;1.73;1.63;;;13.10;99.90;;;;;;6309882;22;20416;-58
2021/05/24 18:38:07;;;;;;;3.17;1.70;;;13.10;99.90;;;;;;6310287;22;20424;-58
2021/05/24 18:40:39;;;;;;;2.00;1.90;;;13.10;99.90;;;;;;6309286;22;20420;-57
2021/05/24 18:43:11;;;;;;;3.20;2.83;;;13.00;99.90;;;;;;6309780;22;20391;-58
2021/05/24 18:45:38;;;;;;;2.00;1.80;;;13.00;99.90;;;;;;6309790;22;20517;-58
2021/05/24 18:48:06;;;;;;;4.53;3.60;;;12.90;99.90;;;;;;6309647;22;20420;-56
2021/05/24 18:50:33;;;;;;;8.70;6.87;;;12.90;99.90;;;;;;6309782;22;20490;-58
2021/05/24 18:53:01;;;;;;;18.60;11.43;;;12.90;99.90;;;;;;6309486;22;20892;-54